createdAt,value
2023-04-14T00:01:39.576Z,100582.28
2023-04-14T00:04:16.129Z,100577.97
2023-04-14T00:06:49.821Z,100586.47
2023-04-14T00:09:20.343Z,100586.25
2023-04-14T00:11:52.142Z,100588.69
2023-04-14T00:14:23.590Z,100590.34
2023-04-14T00:16:54.023Z,100579.34
2023-04-14T00:19:24.439Z,100567.16
2023-04-14T00:21:54.908Z,100569.78
2023-04-14T00:24:25.432Z,100586.91
2023-04-14T00:26:56.553Z,100587.09
2023-04-14T00:29:27.825Z,100599.50
2023-04-14T00:31:58.550Z,100596.88
2023-04-14T00:34:29.394Z,100590.69
2023-04-14T00:36:59.794Z,100591.50
2023-04-14T00:39:33.183Z,100600.94
2023-04-14T00:42:05.258Z,100606.28
2023-04-14T00:44:35.717Z,100602.72
2023-04-14T00:47:06.486Z,100585.00
2023-04-14T00:49:38.780Z,100568.44
2023-04-14T00:52:09.927Z,100571.69
2023-04-14T00:54:40.523Z,100560.25
2023-04-14T00:57:12.589Z,100549.66
2023-04-14T00:59:43.582Z,100548.50
2023-04-14T01:02:15.208Z,100556.38
2023-04-14T01:04:54.099Z,100557.09
2023-04-14T01:07:27.072Z,100555.03
2023-04-14T01:09:59.718Z,100552.28
2023-04-14T01:12:33.209Z,100552.16
2023-04-14T01:15:36.072Z,100554.72
2023-04-14T01:18:19.011Z,100559.84
2023-04-14T01:21:01.105Z,100552.69
2023-04-14T01:23:41.264Z,100536.00
2023-04-14T01:26:23.114Z,100541.03
2023-04-14T01:29:09.822Z,100530.44
2023-04-14T01:32:07.332Z,100519.03
2023-04-14T01:35:22.264Z,100528.44
2023-04-14T01:38:00.100Z,100526.44
2023-04-14T01:40:33.163Z,100527.28
2023-04-14T01:43:07.911Z,100526.44
2023-04-14T01:45:55.293Z,100519.41
2023-04-14T01:48:30.294Z,100514.78
2023-04-14T01:51:08.931Z,100504.06
2023-04-14T01:53:44.894Z,100485.50
2023-04-14T01:56:18.799Z,100482.75
2023-04-14T01:58:51.339Z,100472.66
2023-04-14T02:01:22.400Z,100468.75
2023-04-14T02:03:53.508Z,100467.69
2023-04-14T02:06:36.608Z,100470.94
2023-04-14T02:09:11.960Z,100461.06
2023-04-14T02:11:44.802Z,100453.38
2023-04-14T02:14:16.303Z,100447.44
2023-04-14T02:16:49.770Z,100445.50
2023-04-14T02:19:22.630Z,100444.69
2023-04-14T02:21:55.304Z,100434.31
2023-04-14T02:24:32.809Z,100427.16
2023-04-14T02:27:10.510Z,100415.75
2023-04-14T02:29:44.798Z,100397.16
2023-04-14T02:32:30.669Z,100380.56
2023-04-14T02:35:08.595Z,100374.34
2023-04-14T02:37:43.869Z,100373.41
2023-04-14T02:40:23.901Z,100372.34
2023-04-14T02:43:03.063Z,100356.72
2023-04-14T02:45:37.836Z,100351.34
2023-04-14T02:48:15.203Z,100350.41
2023-04-14T02:50:49.718Z,100348.38
2023-04-14T02:53:28.281Z,100334.44
2023-04-14T02:56:22.457Z,100335.38
2023-04-14T02:58:55.531Z,100334.19
2023-04-14T03:01:27.935Z,100327.88
2023-04-14T03:04:03.532Z,100321.78
2023-04-14T03:06:40.919Z,100313.19
2023-04-14T03:09:11.862Z,100317.16
2023-04-14T03:11:45.561Z,100312.13
2023-04-14T03:14:17.923Z,100313.09
2023-04-14T03:16:49.322Z,100316.06
2023-04-14T03:19:25.837Z,100313.44
2023-04-14T03:22:00.319Z,100317.03
2023-04-14T03:24:36.348Z,100293.53
2023-04-14T03:27:18.553Z,100284.91
2023-04-14T03:29:54.922Z,100279.56
2023-04-14T03:32:28.625Z,100268.13
2023-04-14T03:35:02.851Z,100264.53
2023-04-14T03:37:37.904Z,100255.00
2023-04-14T03:40:10.995Z,100250.44
2023-04-14T03:42:47.862Z,100235.66
2023-04-14T03:45:23.400Z,100234.69
2023-04-14T03:48:06.158Z,100249.13
2023-04-14T03:50:44.312Z,100244.72
2023-04-14T03:53:18.482Z,100236.47
2023-04-14T03:55:52.479Z,100225.41
2023-04-14T03:58:24.377Z,100217.41
2023-04-14T04:00:55.852Z,100223.34
2023-04-14T04:03:28.243Z,100235.41
2023-04-14T04:06:01.539Z,100216.34
2023-04-14T04:08:34.739Z,100217.03
2023-04-14T04:11:09.496Z,100208.19
2023-04-14T04:13:43.542Z,100201.06
2023-04-14T04:16:17.181Z,100185.31
2023-04-14T04:18:50.821Z,100202.72
2023-04-14T04:21:30.846Z,100184.34
2023-04-14T04:24:04.198Z,100177.91
2023-04-14T04:26:36.747Z,100172.66
2023-04-14T04:29:07.758Z,100173.47
2023-04-14T04:31:38.725Z,100165.59
2023-04-14T04:34:10.575Z,100158.56
2023-04-14T04:36:43.410Z,100175.13
2023-04-14T04:39:13.926Z,100150.81
2023-04-14T04:41:45.949Z,100144.97
2023-04-14T04:44:16.415Z,100144.97
2023-04-14T04:46:53.004Z,100138.88
2023-04-14T04:49:27.343Z,100145.06
2023-04-14T04:52:04.193Z,100143.28
2023-04-14T04:54:34.721Z,100138.88
2023-04-14T04:57:05.227Z,100146.75
2023-04-14T04:59:37.855Z,100135.41
2023-04-14T05:02:09.287Z,100138.03
2023-04-14T05:04:39.957Z,100133.63
2023-04-14T05:07:10.369Z,100129.91
2023-04-14T05:09:40.781Z,100136.13
2023-04-14T05:12:11.113Z,100123.13
2023-04-14T05:14:41.536Z,100115.13
2023-04-14T05:17:12.053Z,100117.59
2023-04-14T05:19:43.391Z,100118.44
2023-04-14T05:22:14.549Z,100119.41
2023-04-14T05:24:53.833Z,100118.44
2023-04-14T05:27:24.332Z,100124.56
2023-04-14T05:29:55.497Z,100106.88
2023-04-14T05:32:28.352Z,100098.16
2023-04-14T05:34:59.329Z,100090.75
2023-04-14T05:37:31.430Z,100089.31
2023-04-14T05:40:01.995Z,100078.56
2023-04-14T05:42:32.521Z,100071.53
2023-04-14T05:45:03.486Z,100071.53
2023-04-14T05:47:34.637Z,100071.41
2023-04-14T05:50:05.776Z,100063.50
2023-04-14T05:52:36.143Z,100062.44
2023-04-14T05:55:06.749Z,100065.91
2023-04-14T05:57:37.359Z,100065.91
2023-04-14T06:00:10.034Z,100065.91
2023-04-14T06:02:44.147Z,100054.56
2023-04-14T06:05:15.658Z,100062.31
2023-04-14T06:07:46.269Z,100061.34
2023-04-14T06:10:17.792Z,100050.84
2023-04-14T06:12:48.197Z,100042.84
2023-04-14T06:15:19.476Z,100051.44
2023-04-14T06:17:49.937Z,100041.75
2023-04-14T06:20:21.372Z,100044.63
2023-04-14T06:22:52.006Z,100033.56
2023-04-14T06:25:23.077Z,100037.72
2023-04-14T06:27:53.487Z,100032.34
2023-04-14T06:30:23.958Z,100032.34
2023-04-14T06:32:55.571Z,100034.00
2023-04-14T06:35:32.980Z,100026.25
2023-04-14T06:38:05.022Z,100016.59
2023-04-14T06:40:35.706Z,100016.69
2023-04-14T06:43:06.157Z,100008.81
2023-04-14T06:45:36.553Z,100000.84
2023-04-14T06:48:07.595Z,99999.16
2023-04-14T06:50:38.105Z,99997.34
2023-04-14T06:53:10.674Z,99995.69
2023-04-14T06:55:43.860Z,99990.44
2023-04-14T06:58:14.216Z,99982.56
2023-04-14T07:00:44.605Z,99977.31
2023-04-14T07:03:16.492Z,99971.22
2023-04-14T07:05:46.956Z,99972.06
2023-04-14T07:08:21.770Z,99965.16
2023-04-14T07:10:53.775Z,99955.47
2023-04-14T07:13:24.312Z,99945.81
2023-04-14T07:15:54.880Z,99951.19
2023-04-14T07:18:25.356Z,99945.81
2023-04-14T07:20:56.368Z,99945.81
2023-04-14T07:23:26.810Z,99938.06
2023-04-14T07:25:59.386Z,99937.91
2023-04-14T07:28:30.696Z,99941.50
2023-04-14T07:31:01.791Z,99933.50
2023-04-14T07:33:32.685Z,99938.88
2023-04-14T07:36:06.311Z,99942.47
2023-04-14T07:38:37.048Z,99945.09
2023-04-14T07:41:08.714Z,99934.59
2023-04-14T07:43:41.493Z,99941.66
2023-04-14T07:46:12.243Z,99953.00
2023-04-14T07:48:44.179Z,99950.34
2023-04-14T07:51:14.616Z,99948.69
2023-04-14T07:53:46.488Z,99957.41
2023-04-14T07:56:17.635Z,99964.47
2023-04-14T07:58:48.027Z,99965.41
2023-04-14T08:01:18.616Z,99970.66
2023-04-14T08:03:49.976Z,99978.53
2023-04-14T08:06:21.405Z,99975.22
2023-04-14T08:08:51.832Z,99967.19
2023-04-14T08:11:22.478Z,99961.09
2023-04-14T08:13:54.434Z,99961.25
2023-04-14T08:16:25.298Z,99968.16
2023-04-14T08:18:57.864Z,99973.41
2023-04-14T08:21:29.301Z,99970.78
2023-04-14T08:24:00.008Z,99970.78
2023-04-14T08:26:30.468Z,99975.22
2023-04-14T08:29:01.181Z,99971.75
2023-04-14T08:31:31.949Z,99981.28
2023-04-14T08:34:02.517Z,99994.41
2023-04-14T08:36:33.015Z,99984.06
2023-04-14T08:39:03.571Z,99985.72
2023-04-14T08:41:36.756Z,99992.75
2023-04-14T08:44:06.982Z,99995.53
2023-04-14T08:46:38.448Z,99980.59
2023-04-14T08:49:14.425Z,99988.47
2023-04-14T08:51:47.846Z,99987.66
2023-04-14T08:54:19.807Z,99991.09
2023-04-14T08:56:51.255Z,99988.56
2023-04-14T08:59:22.970Z,99986.78
2023-04-14T09:01:57.374Z,99988.56
2023-04-14T09:04:29.223Z,99980.84
2023-04-14T09:06:59.889Z,99973.78
2023-04-14T09:09:30.544Z,99976.41
2023-04-14T09:12:02.735Z,99986.09
2023-04-14T09:14:33.929Z,99975.59
2023-04-14T09:17:04.793Z,99974.75
2023-04-14T09:19:36.817Z,99972.97
2023-04-14T09:22:28.096Z,99973.09
2023-04-14T09:25:00.003Z,99979.19
2023-04-14T09:27:31.339Z,99977.53
2023-04-14T09:30:03.876Z,99973.94
2023-04-14T09:32:34.614Z,99978.34
2023-04-14T09:35:05.295Z,99976.66
2023-04-14T09:37:53.533Z,99968.78
2023-04-14T09:40:31.481Z,99974.03
2023-04-14T09:43:02.799Z,99981.91
2023-04-14T09:45:46.363Z,99980.25
2023-04-14T09:48:16.836Z,99984.66
2023-04-14T09:51:04.722Z,99986.47
2023-04-14T09:53:37.168Z,99975.97
2023-04-14T09:56:10.241Z,99983.84
2023-04-14T09:58:46.028Z,99978.59
2023-04-14T10:01:23.174Z,99971.69
2023-04-14T10:03:53.743Z,99973.47
2023-04-14T10:06:25.995Z,99986.59
2023-04-14T10:09:00.509Z,99983.16
2023-04-14T10:11:34.991Z,99971.78
2023-04-14T10:14:07.602Z,99970.03
2023-04-14T10:16:38.772Z,99971.78
2023-04-14T10:19:09.943Z,99966.53
2023-04-14T10:21:40.419Z,99965.69
2023-04-14T10:24:11.239Z,99956.16
2023-04-14T10:26:44.270Z,99957.97
2023-04-14T10:29:15.092Z,99966.66
2023-04-14T10:31:50.550Z,99966.81
2023-04-14T10:34:23.499Z,99976.47
2023-04-14T10:36:54.011Z,99965.16
2023-04-14T10:39:29.108Z,99962.53
2023-04-14T10:41:59.499Z,99960.84
2023-04-14T10:44:36.339Z,99968.72
2023-04-14T10:47:09.645Z,99978.38
2023-04-14T10:49:42.907Z,99980.16
2023-04-14T10:52:21.159Z,99973.13
2023-04-14T10:55:02.577Z,99972.44
2023-04-14T10:57:38.801Z,99982.81
2023-04-14T11:00:29.373Z,99988.31
2023-04-14T11:03:01.397Z,99989.16
2023-04-14T11:05:35.968Z,99985.69
2023-04-14T11:08:21.554Z,99979.59
2023-04-14T11:10:55.509Z,99970.88
2023-04-14T11:13:26.134Z,99966.47
2023-04-14T11:16:08.398Z,99982.34
2023-04-14T11:18:45.802Z,99973.50
2023-04-14T11:21:19.164Z,99974.47
2023-04-14T11:23:50.616Z,99971.00
2023-04-14T11:26:23.904Z,99979.72
2023-04-14T11:28:58.166Z,99975.44
2023-04-14T11:31:29.547Z,99978.06
2023-04-14T11:34:00.818Z,99980.69
2023-04-14T11:36:32.950Z,99982.47
2023-04-14T11:39:05.582Z,99992.97
2023-04-14T11:41:36.773Z,100001.81
2023-04-14T11:44:07.375Z,100005.38
2023-04-14T11:46:41.067Z,99997.50
2023-04-14T11:49:11.496Z,100004.53
2023-04-14T11:51:42.765Z,100008.00
2023-04-14T11:54:14.599Z,100001.91
2023-04-14T11:56:45.815Z,100004.53
2023-04-14T11:59:16.774Z,100002.06
2023-04-14T12:01:52.964Z,100001.09
2023-04-14T12:04:23.941Z,100008.97
2023-04-14T12:06:54.857Z,100007.31
2023-04-14T12:09:31.973Z,100009.09
2023-04-14T12:12:02.353Z,100009.94
2023-04-14T12:14:33.090Z,100018.78
2023-04-14T12:17:03.794Z,100022.22
2023-04-14T12:19:34.286Z,100023.19
2023-04-14T12:22:06.524Z,100020.56
2023-04-14T12:24:38.159Z,100017.09
2023-04-14T12:27:10.814Z,100015.31
2023-04-14T12:29:42.317Z,100009.22
2023-04-14T12:32:16.957Z,100010.16
2023-04-14T12:34:59.411Z,100008.38
2023-04-14T12:37:30.910Z,100013.75
2023-04-14T12:40:02.902Z,100005.06
2023-04-14T12:42:49.784Z,100005.06
2023-04-14T12:45:20.374Z,100005.06
2023-04-14T12:47:55.993Z,100005.06
2023-04-14T12:50:31.894Z,100005.06
2023-04-14T12:53:03.145Z,99997.31
2023-04-14T12:55:34.507Z,100000.78
2023-04-14T12:58:06.230Z,99999.94
2023-04-14T13:00:36.748Z,99994.69
2023-04-14T13:03:08.018Z,99994.69
2023-04-14T13:05:38.390Z,99989.44
2023-04-14T13:08:08.791Z,99986.81
2023-04-14T13:10:39.916Z,99985.13
2023-04-14T13:13:10.401Z,99978.22
2023-04-14T13:16:13.953Z,99976.56
2023-04-14T13:18:31.160Z,99977.38
2023-04-14T13:21:03.664Z,99973.09
2023-04-14T13:23:34.607Z,99964.41
2023-04-14T13:26:06.338Z,99959.97
2023-04-14T13:28:38.072Z,99957.38
2023-04-14T13:31:08.934Z,99953.06
2023-04-14T13:33:39.340Z,99947.81
2023-04-14T13:36:10.144Z,99946.03
2023-04-14T13:38:40.571Z,99933.88
2023-04-14T13:41:12.252Z,99928.63
2023-04-14T13:43:42.440Z,99936.50
2023-04-14T13:46:13.134Z,99932.19
2023-04-14T13:48:45.697Z,99924.31
2023-04-14T13:51:16.231Z,99932.19
2023-04-14T13:53:47.782Z,99933.97
2023-04-14T13:56:18.515Z,99936.75
2023-04-14T13:58:48.744Z,99935.91
2023-04-14T14:01:19.028Z,99933.28
2023-04-14T14:03:51.588Z,99925.41
2023-04-14T14:06:22.059Z,99924.59
2023-04-14T14:09:06.973Z,99920.31
2023-04-14T14:11:38.180Z,99920.41
2023-04-14T14:14:08.854Z,99928.19
2023-04-14T14:16:39.323Z,99920.31
2023-04-14T14:19:12.531Z,99929.09
2023-04-14T14:21:45.513Z,99928.28
2023-04-14T14:24:16.107Z,99923.03
2023-04-14T14:26:46.299Z,99916.97
2023-04-14T14:29:17.098Z,99918.75
2023-04-14T14:31:47.736Z,99924.00
2023-04-14T14:34:19.509Z,99922.19
2023-04-14T14:36:50.017Z,99928.41
2023-04-14T14:39:20.684Z,99920.53
2023-04-14T14:41:51.961Z,99929.38
2023-04-14T14:44:22.294Z,99939.88
2023-04-14T14:46:54.181Z,99928.56
2023-04-14T14:49:24.756Z,99923.38
2023-04-14T14:51:55.877Z,99914.69
2023-04-14T14:54:26.291Z,99916.34
2023-04-14T14:56:56.435Z,99905.84
2023-04-14T14:59:27.933Z,99903.34
2023-04-14T15:01:58.529Z,99899.06
2023-04-14T15:04:29.843Z,99902.38
2023-04-14T15:07:00.101Z,99899.06
2023-04-14T15:09:30.488Z,99896.44
2023-04-14T15:12:01.882Z,99892.16
2023-04-14T15:14:32.836Z,99894.78
2023-04-14T15:17:04.022Z,99895.63
2023-04-14T15:19:34.551Z,99890.47
2023-04-14T15:22:05.156Z,99893.09
2023-04-14T15:24:35.375Z,99887.03
2023-04-14T15:27:05.722Z,99894.91
2023-04-14T15:29:36.855Z,99891.44
2023-04-14T15:32:07.329Z,99897.66
2023-04-14T15:34:38.078Z,99893.22
2023-04-14T15:37:08.536Z,99888.94
2023-04-14T15:39:39.353Z,99883.72
2023-04-14T15:42:09.719Z,99875.84
2023-04-14T15:44:40.080Z,99876.81
2023-04-14T15:47:10.494Z,99877.63
2023-04-14T15:49:40.874Z,99870.72
2023-04-14T15:52:11.370Z,99863.78
2023-04-14T15:54:42.210Z,99868.09
2023-04-14T15:57:12.821Z,99856.75
2023-04-14T15:59:43.213Z,99851.50
2023-04-14T16:02:13.927Z,99848.06
2023-04-14T16:04:44.596Z,99842.94
2023-04-14T16:07:15.264Z,99835.91
2023-04-14T16:09:45.665Z,99828.16
2023-04-14T16:12:16.829Z,99836.88
2023-04-14T16:14:47.792Z,99824.72
2023-04-14T16:17:18.938Z,99825.53
2023-04-14T16:19:49.549Z,99828.16
2023-04-14T16:22:20.917Z,99829.13
2023-04-14T16:24:51.440Z,99835.22
2023-04-14T16:27:22.044Z,99824.81
2023-04-14T16:29:53.606Z,99822.19
2023-04-14T16:32:24.056Z,99815.28
2023-04-14T16:34:54.614Z,99811.00
2023-04-14T16:37:27.472Z,99802.19
2023-04-14T16:39:58.450Z,99802.19
2023-04-14T16:42:29.030Z,99807.44
2023-04-14T16:44:59.788Z,99809.22
2023-04-14T16:47:30.336Z,99799.69
2023-04-14T16:50:01.135Z,99799.69
2023-04-14T16:52:32.613Z,99787.53
2023-04-14T16:55:03.407Z,99780.50
2023-04-14T16:57:34.190Z,99770.13
2023-04-14T17:00:05.030Z,99774.44
2023-04-14T17:02:37.157Z,99776.22
2023-04-14T17:05:11.652Z,99776.31
2023-04-14T17:07:42.678Z,99775.38
2023-04-14T17:10:13.643Z,99784.19
2023-04-14T17:12:44.533Z,99777.28
2023-04-14T17:15:14.971Z,99772.06
2023-04-14T17:17:45.374Z,99773.84
2023-04-14T17:20:16.920Z,99770.41
2023-04-14T17:22:47.556Z,99766.81
2023-04-14T17:25:23.918Z,99770.41
2023-04-14T17:27:55.284Z,99775.63
2023-04-14T17:30:26.153Z,99772.19
2023-04-14T17:32:56.926Z,99773.97
2023-04-14T17:35:27.924Z,99767.78
2023-04-14T17:37:59.268Z,99752.16
2023-04-14T17:40:30.168Z,99760.88
2023-04-14T17:43:00.575Z,99746.06
2023-04-14T17:45:31.318Z,99743.44
2023-04-14T17:48:02.083Z,99732.97
2023-04-14T17:50:32.628Z,99724.41
2023-04-14T17:53:03.359Z,99723.44
2023-04-14T17:55:34.567Z,99717.34
2023-04-14T17:58:05.251Z,99711.28
2023-04-14T18:00:37.161Z,99706.19
2023-04-14T18:03:07.794Z,99698.31
2023-04-14T18:05:38.855Z,99699.13
2023-04-14T18:08:09.380Z,99692.25
2023-04-14T18:10:40.758Z,99695.78
2023-04-14T18:13:11.632Z,99684.47
2023-04-14T18:15:46.012Z,99676.63
2023-04-14T18:18:17.128Z,99660.88
2023-04-14T18:20:51.579Z,99662.69
2023-04-14T18:23:22.029Z,99671.50
2023-04-14T18:28:35.833Z,99658.53
2023-04-14T18:31:07.114Z,99660.19
2023-04-14T18:33:37.976Z,99665.44
2023-04-14T18:36:08.658Z,99659.47
2023-04-14T18:38:40.118Z,99661.16
2023-04-14T18:41:11.781Z,99658.66
2023-04-14T18:43:43.280Z,99644.72
2023-04-14T18:46:13.729Z,99637.66
2023-04-14T18:48:44.744Z,99642.22
2023-04-14T18:51:15.074Z,99645.69
2023-04-14T18:53:47.086Z,99637.94
2023-04-14T18:56:18.009Z,99650.22
2023-04-14T18:58:48.989Z,99656.31
2023-04-14T19:01:20.270Z,99661.53
2023-04-14T19:03:50.802Z,99663.34
2023-04-14T19:09:05.649Z,99636.25
2023-04-14T19:11:37.627Z,99645.09
2023-04-14T19:14:08.154Z,99645.09
2023-04-14T19:16:38.778Z,99642.47
2023-04-14T19:19:10.053Z,99624.25
2023-04-14T19:21:40.666Z,99635.56
2023-04-14T19:24:11.860Z,99632.13
2023-04-14T19:26:43.072Z,99621.63
2023-04-14T19:29:13.377Z,99613.91
2023-04-14T19:31:44.320Z,99611.28
2023-04-14T19:34:14.800Z,99600.81
2023-04-14T19:36:46.413Z,99598.19
2023-04-14T19:39:17.619Z,99591.25
2023-04-14T19:41:48.819Z,99591.25
2023-04-14T19:44:19.179Z,99581.72
2023-04-14T19:46:50.090Z,99586.00
2023-04-14T19:49:20.708Z,99588.78
2023-04-14T19:51:54.257Z,99596.06
2023-04-14T19:54:24.637Z,99600.47
2023-04-14T19:56:55.710Z,99590.81
2023-04-14T19:59:27.006Z,99594.53
2023-04-14T20:01:57.762Z,99596.34
2023-04-14T20:04:28.757Z,99602.50
2023-04-14T20:06:59.284Z,99602.41
2023-04-14T20:09:29.661Z,99590.28
2023-04-14T20:12:01.909Z,99601.59
2023-04-14T20:14:32.358Z,99601.59
2023-04-14T20:17:02.822Z,99598.00
2023-04-14T20:19:34.518Z,99591.19
2023-04-14T20:22:12.803Z,99595.50
2023-04-14T20:27:26.284Z,99598.25
2023-04-14T20:29:57.086Z,99598.25
2023-04-14T20:32:28.246Z,99591.34
2023-04-14T20:34:58.646Z,99590.53
2023-04-14T20:37:30.551Z,99590.38
2023-04-14T20:40:01.086Z,99587.91
2023-04-14T20:42:31.894Z,99590.66
2023-04-14T20:45:02.419Z,99584.56
2023-04-14T20:50:15.821Z,99581.94
2023-04-14T20:52:48.007Z,99579.47
2023-04-14T20:55:21.020Z,99583.72
2023-04-14T20:57:51.518Z,99578.75
2023-04-14T21:00:22.424Z,99582.47
2023-04-14T21:05:39.135Z,99580.94
2023-04-14T21:08:10.955Z,99580.22
2023-04-14T21:11:02.259Z,99575.97
2023-04-14T21:15:30.284Z,99570.72
2023-04-14T21:16:22.352Z,99567.25
2023-04-14T21:18:52.964Z,99560.38
2023-04-14T21:21:24.148Z,99566.44
2023-04-14T21:23:54.564Z,99572.66
2023-04-14T21:26:25.372Z,99564.78
2023-04-14T21:28:55.816Z,99565.47
2023-04-14T21:31:27.129Z,99562.84
2023-04-14T21:36:42.380Z,99565.59
2023-04-14T21:39:13.303Z,99560.38
2023-04-14T21:41:44.594Z,99562.28
2023-04-14T21:44:17.119Z,99555.25
2023-04-14T21:46:47.575Z,99554.41
2023-04-14T21:49:20.603Z,99557.84
2023-04-14T21:51:52.964Z,99550.00
2023-04-14T21:54:23.288Z,99550.00
2023-04-14T21:56:54.649Z,99557.03
2023-04-14T21:59:25.135Z,99552.63
2023-04-14T22:01:56.295Z,99552.63
2023-04-14T22:04:35.951Z,99551.53
2023-04-14T22:07:07.932Z,99547.38
2023-04-14T22:09:38.393Z,99549.88
2023-04-14T22:12:08.905Z,99546.56
2023-04-14T22:14:39.344Z,99547.38
2023-04-14T22:17:09.922Z,99557.84
2023-04-14T22:19:40.355Z,99563.09
2023-04-14T22:22:11.218Z,99558.81
2023-04-14T22:24:41.554Z,99567.50
2023-04-14T22:27:12.114Z,99564.06
2023-04-14T22:29:42.739Z,99561.44
2023-04-14T22:32:13.358Z,99555.38
2023-04-14T22:34:44.207Z,99562.41
2023-04-14T22:39:58.396Z,99556.22
2023-04-14T22:42:29.526Z,99562.28
2023-04-14T22:45:00.017Z,99555.38
2023-04-14T22:47:30.444Z,99565.03
2023-04-14T22:50:00.979Z,99561.44
2023-04-14T22:52:32.294Z,99558.97
2023-04-14T22:55:02.998Z,99558.13
2023-04-14T22:57:34.754Z,99554.56
2023-04-14T23:00:10.415Z,99558.13
2023-04-14T23:02:43.764Z,99555.50
2023-04-14T23:05:16.356Z,99553.72
2023-04-14T23:10:31.148Z,99545.88
2023-04-14T23:13:02.012Z,99544.91
2023-04-14T23:15:33.292Z,99541.44
2023-04-14T23:18:04.714Z,99528.34
2023-04-14T23:20:35.182Z,99523.09
2023-04-14T23:23:06.264Z,99520.47
2023-04-14T23:25:36.629Z,99522.28
2023-04-14T23:28:07.623Z,99524.91
2023-04-14T23:30:38.476Z,99521.44
2023-04-14T23:33:08.820Z,99521.44
2023-04-14T23:35:40.862Z,99530.97
2023-04-14T23:38:11.188Z,99523.94
2023-04-14T23:40:41.805Z,99527.38
2023-04-14T23:43:12.151Z,99527.38
2023-04-14T23:45:43.745Z,99528.34
2023-04-14T23:48:14.409Z,99536.91
2023-04-14T23:51:01.644Z,99529.03
2023-04-14T23:53:35.602Z,99520.34
2023-04-14T23:56:06.780Z,99518.69
2023-04-14T23:58:37.208Z,99519.53
